createdAt,value
2023-03-29T04:43:45.695Z,0.29
2023-03-29T04:46:25.776Z,0.29
2023-03-29T04:49:11.950Z,0.29
2023-03-29T04:51:41.812Z,0.29
2023-03-29T04:54:13.201Z,0.29
2023-03-29T04:57:00.237Z,0.26
2023-03-29T04:59:41.843Z,0.26
2023-03-29T05:02:17.236Z,0.25
2023-03-29T05:04:46.249Z,0.25
2023-03-29T05:07:17.599Z,0.24
2023-03-29T05:09:45.042Z,0.24
2023-03-29T05:12:11.970Z,0.25
2023-03-29T05:14:56.257Z,0.25
2023-03-29T05:17:26.738Z,0.25
2023-03-29T05:19:55.560Z,0.26
2023-03-29T05:22:30.866Z,0.26
2023-03-29T05:24:58.734Z,0.27
2023-03-29T05:27:27.640Z,0.29
2023-03-29T05:30:04.064Z,0.29
2023-03-29T05:32:41.027Z,0.28
2023-03-29T05:35:08.407Z,0.26
2023-03-29T05:37:35.144Z,0.25
2023-03-29T05:40:09.515Z,0.24
2023-03-29T05:42:50.640Z,0.21
2023-03-29T05:45:17.382Z,0.20
2023-03-29T05:47:44.809Z,0.19
2023-03-29T05:50:11.545Z,0.18
2023-03-29T05:52:40.529Z,0.15
2023-03-29T05:55:07.646Z,0.12
2023-03-29T05:57:35.015Z,0.12
2023-03-29T06:00:16.149Z,0.13
2023-03-29T06:02:43.261Z,0.14
2023-03-29T06:05:10.202Z,0.14
2023-03-29T06:07:54.076Z,0.15
2023-03-29T06:10:37.034Z,0.17
2023-03-29T06:13:42.497Z,0.19
2023-03-29T06:16:10.222Z,0.22
2023-03-29T06:18:39.573Z,0.24
2023-03-29T06:21:10.762Z,0.26
2023-03-29T06:23:38.915Z,0.27
2023-03-29T06:26:06.928Z,0.26
2023-03-29T06:28:35.243Z,0.23
2023-03-29T06:31:04.088Z,0.18
2023-03-29T06:33:37.165Z,0.14
2023-03-29T06:36:16.224Z,0.12
2023-03-29T06:38:47.849Z,0.12
2023-03-29T06:41:38.406Z,0.13
2023-03-29T06:44:08.278Z,0.15
2023-03-29T06:46:38.359Z,0.16
2023-03-29T06:49:07.105Z,0.17
2023-03-29T06:51:41.653Z,0.19
2023-03-29T06:54:08.701Z,0.21
2023-03-29T06:56:41.372Z,0.24
2023-03-29T06:59:13.637Z,0.27
2023-03-29T07:01:55.258Z,0.31
2023-03-29T07:04:36.659Z,0.36
2023-03-29T07:07:19.552Z,0.42
2023-03-29T07:09:53.580Z,0.45
2023-03-29T07:12:26.479Z,0.49
2023-03-29T07:14:57.854Z,0.50
2023-03-29T07:17:27.744Z,0.52
2023-03-29T07:19:54.790Z,0.53
2023-03-29T07:22:44.597Z,0.53
2023-03-29T07:25:13.207Z,0.55
2023-03-29T07:27:42.092Z,0.57
2023-03-29T07:30:10.427Z,0.59
2023-03-29T07:32:39.980Z,0.58
2023-03-29T07:35:26.038Z,0.57
2023-03-29T07:38:13.872Z,0.59
2023-03-29T07:40:41.106Z,0.61
2023-03-29T07:43:26.269Z,0.60
2023-03-29T07:45:53.094Z,0.60
2023-03-29T07:48:19.968Z,0.59
2023-03-29T07:50:57.564Z,0.59
2023-03-29T07:53:29.825Z,0.60
2023-03-29T07:55:57.405Z,0.63
2023-03-29T07:58:54.113Z,0.68
2023-03-29T08:01:21.097Z,0.69
2023-03-29T08:04:13.892Z,0.66
2023-03-29T08:07:09.663Z,0.60
2023-03-29T08:09:56.851Z,0.53
2023-03-29T08:12:32.717Z,0.53
2023-03-29T08:15:00.291Z,0.57
2023-03-29T08:17:32.149Z,0.60
2023-03-29T08:19:59.200Z,0.63
2023-03-29T08:22:25.988Z,0.66
2023-03-29T08:25:16.324Z,0.71
2023-03-29T08:27:46.100Z,0.74
2023-03-29T08:30:14.893Z,0.76
2023-03-29T08:35:11.216Z,0.80
2023-03-29T08:38:01.197Z,0.82
2023-03-29T08:40:29.494Z,0.82
2023-03-29T08:42:56.124Z,0.83
2023-03-29T08:45:33.252Z,0.84
2023-03-29T08:48:20.566Z,0.89
2023-03-29T08:51:02.284Z,0.96
2023-03-29T08:53:33.636Z,0.99
2023-03-29T08:56:16.162Z,1.01
2023-03-29T08:59:25.281Z,1.01
2023-03-29T09:01:53.306Z,1.02
2023-03-29T09:04:22.203Z,1.08
2023-03-29T09:06:55.270Z,1.10
2023-03-29T09:09:26.141Z,1.13
2023-03-29T09:11:53.160Z,1.18
2023-03-29T09:14:32.044Z,1.21
2023-03-29T09:16:58.962Z,1.27
2023-03-29T09:19:26.150Z,1.34
2023-03-29T09:22:00.608Z,1.39
2023-03-29T09:24:27.533Z,1.48
2023-03-29T09:27:10.936Z,1.56
2023-03-29T09:29:56.175Z,1.59
2023-03-29T09:32:32.446Z,1.60
2023-03-29T09:35:18.753Z,1.60
2023-03-29T09:37:45.939Z,1.57
2023-03-29T09:40:15.085Z,1.58
2023-03-29T09:42:58.438Z,1.67
2023-03-29T09:45:25.142Z,1.74
2023-03-29T09:48:04.644Z,1.76
2023-03-29T09:50:36.248Z,1.74
2023-03-29T09:53:05.694Z,1.75
2023-03-29T09:55:38.908Z,1.82
2023-03-29T09:58:12.305Z,1.89
2023-03-29T10:00:39.570Z,1.93
2023-03-29T10:03:10.049Z,1.94
2023-03-29T10:05:45.734Z,2.02
2023-03-29T10:08:35.229Z,2.13
2023-03-29T10:11:03.739Z,2.21
2023-03-29T10:13:31.045Z,2.17
2023-03-29T10:15:57.660Z,2.08
2023-03-29T10:18:27.102Z,2.01
2023-03-29T10:20:57.322Z,2.00
2023-03-29T10:23:23.967Z,2.06
2023-03-29T10:25:51.308Z,2.15
2023-03-29T10:28:17.952Z,2.24
2023-03-29T10:30:45.207Z,2.25
2023-03-29T10:33:15.645Z,2.23
2023-03-29T10:35:42.327Z,2.18
2023-03-29T10:38:09.915Z,2.12
2023-03-29T10:40:41.160Z,2.04
2023-03-29T10:43:16.612Z,1.96
2023-03-29T10:45:43.654Z,1.92
2023-03-29T10:48:14.204Z,1.92
2023-03-29T10:50:40.996Z,1.93
2023-03-29T10:53:15.321Z,1.90
2023-03-29T10:55:46.644Z,1.89
2023-03-29T10:58:16.099Z,1.87
2023-03-29T11:00:46.435Z,1.90
2023-03-29T11:03:23.555Z,1.95
2023-03-29T11:05:59.752Z,2.00
2023-03-29T11:08:38.521Z,1.98
2023-03-29T11:11:08.884Z,1.95
2023-03-29T11:13:47.105Z,1.92
2023-03-29T11:16:17.284Z,1.91
2023-03-29T11:18:44.364Z,1.89
2023-03-29T11:21:26.645Z,1.89
2023-03-29T11:24:12.304Z,1.88
2023-03-29T11:26:38.919Z,1.84
2023-03-29T11:29:08.741Z,1.81
2023-03-29T11:31:44.617Z,1.77
2023-03-29T11:34:24.127Z,1.73
2023-03-29T11:36:53.188Z,1.71
2023-03-29T11:39:20.084Z,1.70
2023-03-29T11:41:48.608Z,1.72
2023-03-29T11:44:22.104Z,1.74
2023-03-29T11:46:49.272Z,1.75
2023-03-29T11:49:23.406Z,1.74
2023-03-29T11:51:53.915Z,1.73
2023-03-29T11:54:25.034Z,1.70
2023-03-29T11:56:56.570Z,1.70
2023-03-29T11:59:37.174Z,1.68
2023-03-29T12:02:03.839Z,1.70
2023-03-29T12:04:36.593Z,1.70
2023-03-29T12:07:09.436Z,1.70
2023-03-29T12:09:44.197Z,1.67
2023-03-29T12:12:17.643Z,1.65
2023-03-29T12:14:44.312Z,1.64
2023-03-29T12:17:12.005Z,1.65
2023-03-29T12:19:43.341Z,1.68
2023-03-29T12:22:10.391Z,1.70
2023-03-29T12:24:41.463Z,1.72
2023-03-29T12:27:08.507Z,1.71
2023-03-29T12:29:47.821Z,1.67
2023-03-29T12:32:33.385Z,1.66
2023-03-29T12:35:28.967Z,1.65
2023-03-29T12:38:25.237Z,1.68
2023-03-29T12:41:21.172Z,1.71
